createdAt,value
2017-08-24T00:04:00.091Z,13.60
2017-08-24T00:08:47.056Z,13.50
2017-08-24T00:13:33.763Z,13.40
2017-08-24T00:18:20.408Z,13.30
2017-08-24T00:23:07.135Z,13.30
2017-08-24T00:27:53.761Z,13.30
2017-08-24T00:32:40.671Z,13.10
2017-08-24T00:37:27.274Z,13.00
2017-08-24T00:42:14.228Z,12.80
2017-08-24T00:47:00.923Z,12.80
2017-08-24T00:51:47.568Z,12.90
2017-08-24T00:56:34.189Z,12.90
2017-08-24T01:01:20.910Z,13.00
2017-08-24T01:06:07.633Z,13.00
2017-08-24T01:10:54.521Z,12.90
2017-08-24T01:15:41.128Z,12.90
2017-08-24T01:20:28.005Z,12.90
2017-08-24T01:25:14.713Z,12.90
2017-08-24T01:30:01.451Z,13.00
2017-08-24T01:34:48.139Z,12.90
2017-08-24T01:39:34.800Z,13.00
2017-08-24T01:44:21.473Z,13.00
2017-08-24T01:49:08.108Z,13.10
2017-08-24T01:53:55.068Z,13.00
2017-08-24T01:58:41.684Z,12.90
2017-08-24T02:03:28.342Z,12.80
2017-08-24T02:08:15.018Z,12.80
2017-08-24T02:13:01.645Z,12.70
2017-08-24T02:17:48.323Z,12.70
2017-08-24T02:22:35.365Z,12.70
2017-08-24T02:27:22.012Z,12.80
2017-08-24T02:32:08.729Z,12.80
2017-08-24T02:36:55.365Z,12.80
2017-08-24T02:41:42.082Z,12.80
2017-08-24T02:46:29.024Z,12.70
2017-08-24T02:51:15.831Z,12.70
2017-08-24T02:56:02.711Z,12.70
2017-08-24T03:00:49.630Z,12.90
2017-08-24T03:05:37.273Z,13.00
2017-08-24T03:10:23.932Z,12.90
2017-08-24T03:15:10.978Z,13.00
2017-08-24T03:19:57.611Z,13.00
2017-08-24T03:24:44.261Z,13.00
2017-08-24T03:29:30.906Z,12.90
2017-08-24T03:34:17.541Z,12.80
2017-08-24T03:39:04.293Z,12.80
2017-08-24T03:43:51.288Z,12.80
2017-08-24T03:48:37.957Z,12.80
2017-08-24T03:53:24.655Z,12.70
2017-08-24T03:58:11.449Z,12.70
2017-08-24T04:02:58.236Z,12.70
2017-08-24T04:07:45.535Z,12.70
2017-08-24T04:12:32.478Z,12.80
2017-08-24T04:17:19.144Z,12.80
2017-08-24T04:22:05.856Z,12.80
2017-08-24T04:26:52.860Z,12.90
2017-08-24T04:31:39.761Z,12.90
2017-08-24T04:36:26.485Z,13.00
2017-08-24T04:41:13.476Z,13.10
2017-08-24T04:46:00.147Z,13.10
2017-08-24T04:50:46.777Z,13.10
2017-08-24T04:55:33.779Z,13.10
2017-08-24T05:00:20.469Z,13.00
2017-08-24T05:05:07.449Z,12.90
2017-08-24T05:09:54.196Z,13.00
2017-08-24T05:14:40.985Z,13.10
2017-08-24T05:19:28.123Z,13.20
2017-08-24T05:24:14.830Z,13.30
2017-08-24T05:29:01.552Z,13.40
2017-08-24T05:33:48.676Z,13.40
2017-08-24T05:38:35.276Z,13.50
2017-08-24T05:43:21.937Z,13.60
2017-08-24T05:48:08.583Z,13.80
2017-08-24T05:52:55.222Z,13.90
2017-08-24T05:57:41.863Z,14.20
2017-08-24T06:02:35.993Z,14.40
2017-08-24T06:07:22.667Z,14.60
2017-08-24T06:12:09.313Z,14.70
2017-08-24T06:16:55.945Z,14.90
2017-08-24T06:21:42.667Z,15.10
2017-08-24T06:26:29.614Z,15.40
2017-08-24T06:31:16.225Z,15.60
2017-08-24T06:36:02.841Z,15.80
2017-08-24T06:40:49.481Z,16.00
2017-08-24T06:45:36.106Z,16.30
2017-08-24T06:50:23.118Z,16.30
2017-08-24T06:55:09.930Z,16.40
2017-08-24T06:59:56.592Z,16.60
2017-08-24T07:04:43.433Z,16.80
2017-08-24T07:09:30.370Z,17.10
2017-08-24T07:14:16.988Z,17.30
2017-08-24T07:19:04.151Z,17.60
2017-08-24T07:23:50.774Z,17.80
2017-08-24T07:28:37.902Z,18.20
2017-08-24T07:33:24.624Z,18.60
2017-08-24T07:38:11.275Z,18.90
2017-08-24T07:42:57.910Z,19.10
2017-08-24T07:47:44.808Z,19.20
2017-08-24T07:52:31.406Z,19.10
2017-08-24T07:57:18.327Z,19.30
2017-08-24T08:02:04.968Z,19.60
2017-08-24T08:06:51.617Z,19.80
2017-08-24T08:11:38.287Z,20.20
2017-08-24T08:16:25.345Z,20.80
2017-08-24T08:21:11.969Z,21.50
2017-08-24T08:25:58.755Z,22.00
2017-08-24T08:30:45.649Z,22.30
2017-08-24T08:35:32.292Z,22.70
2017-08-24T08:40:19.081Z,23.70
2017-08-24T08:45:06.092Z,24.40
2017-08-24T08:49:52.704Z,24.90
2017-08-24T08:54:39.345Z,25.10
2017-08-24T08:59:25.975Z,25.50
2017-08-24T09:04:12.655Z,26.10
2017-08-24T09:08:59.540Z,26.50
2017-08-24T09:13:46.177Z,26.20
2017-08-24T09:18:32.821Z,26.40
2017-08-24T09:23:19.765Z,26.60
2017-08-24T09:28:06.470Z,27.50
2017-08-24T09:32:53.092Z,28.10
2017-08-24T09:37:46.792Z,28.30
2017-08-24T09:42:33.428Z,28.60
2017-08-24T09:47:20.732Z,29.00
2017-08-24T09:52:07.344Z,28.90
2017-08-24T09:56:54.407Z,29.30
2017-08-24T10:01:41.088Z,29.60
2017-08-24T10:06:27.719Z,29.80
2017-08-24T10:11:14.346Z,29.60
2017-08-24T10:16:01.065Z,29.30
2017-08-24T10:20:48.095Z,28.70
2017-08-24T10:25:34.720Z,29.30
2017-08-24T10:30:21.367Z,29.50
2017-08-24T10:35:08.404Z,29.60
2017-08-24T10:39:55.050Z,29.60
2017-08-24T10:44:41.687Z,29.90
2017-08-24T10:49:28.345Z,29.90
2017-08-24T10:54:15.246Z,30.20
2017-08-24T10:59:01.874Z,30.90
2017-08-24T11:03:48.512Z,30.50
2017-08-24T11:08:35.143Z,30.40
2017-08-24T11:13:22.146Z,30.90
2017-08-24T11:18:08.795Z,31.20
2017-08-24T11:22:55.430Z,31.40
2017-08-24T11:27:42.093Z,31.50
2017-08-24T11:32:29.046Z,31.70
2017-08-24T11:37:15.690Z,30.80
2017-08-24T11:42:02.355Z,30.40
2017-08-24T11:46:49.026Z,30.90
2017-08-24T11:51:35.630Z,30.90
2017-08-24T11:56:22.567Z,31.00
2017-08-24T12:01:09.197Z,31.60
2017-08-24T12:05:55.840Z,31.00
2017-08-24T12:10:42.503Z,30.50
2017-08-24T12:15:29.154Z,30.40
2017-08-24T12:20:15.801Z,30.70
2017-08-24T12:25:02.510Z,30.40
2017-08-24T12:29:49.936Z,31.10
2017-08-24T12:34:36.602Z,31.10
2017-08-24T12:39:23.670Z,30.80
2017-08-24T12:44:10.341Z,30.50
2017-08-24T12:48:57.005Z,30.00
2017-08-24T12:53:43.650Z,29.80
2017-08-24T12:58:30.318Z,29.40
2017-08-24T13:03:16.990Z,29.40
2017-08-24T13:08:04.048Z,29.20
2017-08-24T13:12:50.671Z,29.20
2017-08-24T13:17:37.320Z,29.10
2017-08-24T13:22:23.966Z,28.90
2017-08-24T13:27:10.884Z,28.80
2017-08-24T13:31:57.535Z,28.80
2017-08-24T13:36:44.158Z,28.50
2017-08-24T13:41:30.786Z,28.20
2017-08-24T13:46:17.444Z,28.40
2017-08-24T13:51:04.063Z,28.60
2017-08-24T13:55:50.698Z,28.30
2017-08-24T14:00:37.409Z,28.20
2017-08-24T14:05:24.081Z,28.30
2017-08-24T14:10:10.721Z,28.30
2017-08-24T14:14:57.706Z,28.50
2017-08-24T14:19:44.734Z,28.30
2017-08-24T14:24:31.390Z,28.20
2017-08-24T14:29:18.109Z,28.10
2017-08-24T14:34:04.851Z,28.10
2017-08-24T14:38:51.925Z,28.10
2017-08-24T14:43:38.563Z,28.00
2017-08-24T14:48:25.240Z,28.10
2017-08-24T14:53:11.902Z,28.00
2017-08-24T14:57:58.798Z,28.10
2017-08-24T15:02:45.422Z,28.00
2017-08-24T15:07:32.114Z,28.10
2017-08-24T15:12:19.085Z,28.00
2017-08-24T15:17:05.697Z,27.90
2017-08-24T15:21:52.360Z,28.00
2017-08-24T15:26:38.993Z,27.80
2017-08-24T15:31:25.970Z,27.80
2017-08-24T15:36:12.587Z,27.70
2017-08-24T15:40:59.207Z,27.60
2017-08-24T15:45:45.939Z,27.60
2017-08-24T15:50:32.631Z,27.60
2017-08-24T15:55:19.582Z,27.50
2017-08-24T16:00:06.293Z,27.50
2017-08-24T16:04:53.037Z,27.30
2017-08-24T16:09:39.700Z,27.30
2017-08-24T16:14:26.427Z,27.30
2017-08-24T16:19:13.522Z,27.10
2017-08-24T16:24:00.342Z,27.10
2017-08-24T16:28:47.018Z,27.10
2017-08-24T16:33:33.643Z,27.00
2017-08-24T16:38:21.418Z,26.90
2017-08-24T16:43:08.082Z,26.80
2017-08-24T16:47:54.825Z,26.70
2017-08-24T16:52:41.629Z,26.60
2017-08-24T16:57:28.358Z,26.40
2017-08-24T17:02:15.055Z,26.30
2017-08-24T17:07:02.773Z,25.70
2017-08-24T17:11:49.467Z,25.70
2017-08-24T17:16:36.153Z,25.60
2017-08-24T17:21:22.859Z,25.40
2017-08-24T17:26:09.633Z,25.20
2017-08-24T17:30:56.367Z,25.10
2017-08-24T17:35:43.004Z,24.90
2017-08-24T17:40:29.715Z,24.70
2017-08-24T17:45:16.673Z,24.50
2017-08-24T17:50:03.758Z,24.50
2017-08-24T17:54:50.464Z,24.30
2017-08-24T17:59:37.135Z,24.10
2017-08-24T18:04:23.777Z,23.90
2017-08-24T18:09:11.224Z,23.50
2017-08-24T18:13:58.927Z,23.40
2017-08-24T18:18:45.581Z,23.40
2017-08-24T18:23:32.215Z,23.20
2017-08-24T18:28:18.885Z,23.00
2017-08-24T18:33:05.524Z,22.80
2017-08-24T18:37:52.181Z,22.70
2017-08-24T18:42:38.821Z,22.50
2017-08-24T18:47:25.884Z,22.30
2017-08-24T18:52:12.569Z,22.10
2017-08-24T18:56:59.265Z,22.00
2017-08-24T19:01:45.972Z,22.00
2017-08-24T19:06:32.943Z,22.00
2017-08-24T19:11:19.599Z,22.00
2017-08-24T19:16:06.335Z,22.00
2017-08-24T19:20:53.086Z,21.90
2017-08-24T19:25:39.849Z,21.90
2017-08-24T19:30:26.919Z,21.90
2017-08-24T19:35:13.615Z,21.90
2017-08-24T19:40:00.351Z,22.00
2017-08-24T19:44:47.048Z,22.00
2017-08-24T19:49:33.759Z,22.00
2017-08-24T19:54:20.487Z,22.00
2017-08-24T19:59:07.202Z,22.30
2017-08-24T20:03:53.918Z,22.20
2017-08-24T20:08:40.952Z,22.00
2017-08-24T20:13:27.571Z,21.90
2017-08-24T20:18:14.310Z,21.80
2017-08-24T20:23:01.072Z,21.70
2017-08-24T20:27:47.734Z,21.90
2017-08-24T20:32:34.510Z,21.70
2017-08-24T20:37:21.511Z,21.60
2017-08-24T20:42:08.287Z,21.30
2017-08-24T20:46:55.037Z,20.90
2017-08-24T20:51:41.775Z,20.70
2017-08-24T20:56:28.426Z,20.50
2017-08-24T21:01:15.089Z,20.40
2017-08-24T21:06:02.084Z,20.30
2017-08-24T21:10:48.717Z,20.20
2017-08-24T21:15:35.431Z,20.20
2017-08-24T21:20:22.077Z,20.00
2017-08-24T21:25:08.741Z,19.70
2017-08-24T21:29:55.849Z,19.50
2017-08-24T21:34:42.915Z,19.20
2017-08-24T21:39:29.572Z,19.10
2017-08-24T21:44:16.292Z,19.10
2017-08-24T21:49:02.965Z,19.10
2017-08-24T21:53:56.648Z,19.40
2017-08-24T21:58:43.334Z,19.10
2017-08-24T22:03:30.181Z,19.10
2017-08-24T22:08:17.162Z,19.20
2017-08-24T22:13:03.808Z,19.20
2017-08-24T22:17:50.549Z,19.20
2017-08-24T22:22:37.278Z,19.10
2017-08-24T22:27:23.924Z,19.10
2017-08-24T22:32:10.614Z,19.00
2017-08-24T22:36:57.264Z,19.00
2017-08-24T22:41:44.184Z,18.80
2017-08-24T22:46:30.836Z,18.70
2017-08-24T22:51:17.526Z,18.70
2017-08-24T22:56:10.209Z,18.60
2017-08-24T23:01:02.805Z,18.60
2017-08-24T23:05:49.636Z,18.60
2017-08-24T23:10:36.752Z,18.50
2017-08-24T23:15:23.373Z,18.50
2017-08-24T23:20:10.131Z,18.50
2017-08-24T23:24:56.832Z,18.50
2017-08-24T23:29:43.633Z,18.40
2017-08-24T23:34:30.304Z,18.30
2017-08-24T23:39:17.243Z,18.30
2017-08-24T23:44:03.885Z,18.20
2017-08-24T23:48:50.572Z,18.10
2017-08-24T23:53:37.218Z,17.90
2017-08-24T23:58:23.885Z,17.50
